Messwerte Wainwright

Temperatur

Temperatur
°C
1638871200 1.00 1.00 -5
1638874800 2.00 2.00 -4
1638878400 3.00 3.00 -4
1638882000 4.00 4.00 -6
1638885600 5.00 5.00 -6
1638889200 6.00 6.00 -6
1638892800 7.00 7.00 -7
1638896400 8.00 8.00 -7
1638900000 9.00 9.00 -7
1638903600 10.00 10.00 -8
1638907200 11.00 11.00 -10
1638910800 12.00 12.00 -9
1638914400 13.00 13.00 -10
1638918000 14.00 14.00 -11
1638921600 15.00 15.00 -11
1638925200 16.00 16.00 -12
1638928800 17.00 17.00
1638932400 18.00 18.00 -12
1638936000 19.00 19.00 -12
1638939600 20.00 20.00 -12
1638943200 21.00 21.00
1638946800 22.00 22.00 -12
1638950400 23.00 23.00 -12
1638954000 0.00 0.00 -12

Aktuellste Messwerte

Wettercharakter
Wetter: bedeckt, etwas Schnee
Temperatur
-12 °C
Feuchtigkeit
75 %
Wind
45 km/hWindrichtung: Südwest
Böen
60 km/h
Luftdruck
988 hPa
Messzeit: 8. Dezember 2021, 0.00Datenquelle: METAR

Weitere Messstationen in der Nähe

Messstation Temperatur Entfernung
Atqasuk -15 °C 96 km
Barrow -12 °C 136 km
Point Lay -14 °C 143 km
Cape Lisburne -16 °C 306 km
Nuiqsut - 337 km
Deadhorse - 338 km
Noatak -19 °C 361 km

Wind

Windrichtung Böen Mittelwind
° km/h km/h
1638871200 1.00 0.00 - 1.00 200° 40
1638874800 2.00 1.00 - 2.00 210° 50
1638878400 3.00 2.00 - 3.00 210° 50
1638882000 4.00 3.00 - 4.00 210° 60 45
1638885600 5.00 4.00 - 5.00 220° 60 50
1638889200 6.00 5.00 - 6.00 230° 65 45
1638892800 7.00 6.00 - 7.00 220° 60 45
1638896400 8.00 7.00 - 8.00 220° 60 45
1638900000 9.00 8.00 - 9.00 220° 60 45
1638903600 10.00 9.00 - 10.00 220° 60 40
1638907200 11.00 10.00 - 11.00 200° 55 45
1638910800 12.00 11.00 - 12.00 220° 60 45
1638914400 13.00 12.00 - 13.00 220° 60 45
1638918000 14.00 13.00 - 14.00 220° 60 40
1638921600 15.00 14.00 - 15.00 230° 60 45
1638925200 16.00 15.00 - 16.00 250° 60 45
1638928800 17.00 16.00 - 17.00
1638932400 18.00 17.00 - 18.00 240° 60 40
1638936000 19.00 18.00 - 19.00 230° 60 45
1638939600 20.00 19.00 - 20.00 230° 60 45
1638943200 21.00 20.00 - 21.00
1638946800 22.00 21.00 - 22.00 230° 60 45
1638950400 23.00 22.00 - 23.00 240° 60 45
1638954000 0.00 23.00 - 0.00 240° 60 45

Ihre Wetterstation

Fehlt Ihre Wetterstation auf unserem Portal?

Schreiben Sie an network@meteonews.ch

Klima

Wann ist es am wärmsten? Wann regnet es am wenigsten? Unsere Klimadaten geben Auskunft.